Time;durP1;ratioP1;P1;durP2;ratioP2;P2;SDS_P1;SDS_P2;PMS_P1;PMS_P2;Temp;Humidity;BMP_temperature;BMP_pressure;BME280_temperature;BME280_humidity;BME280_pressure;Samples;Min_cycle;Max_cycle;Signal;HPM_P1;HPM_P2
2022/11/11 00:01:15;;;;;;;34.73;27.33;;;;;;;6.85;100.00;101566.30;1650617;86;21684;-58
2022/11/11 00:04:01;;;;;;;40.60;29.83;;;;;;;6.84;100.00;101568.08;1649899;86;21357;-59
2022/11/11 00:06:48;;;;;;;36.37;26.93;;;;;;;6.79;100.00;101555.51;1650647;86;21118;-58
2022/11/11 00:09:34;;;;;;;37.53;26.73;;;;;;;6.77;100.00;101557.87;1649730;86;21978;-59
2022/11/11 00:12:20;;;;;;;37.47;26.93;;;;;;;6.70;100.00;101556.25;1650463;86;21775;-59
2022/11/11 00:15:08;;;;;;;33.10;24.33;;;;;;;6.66;100.00;101554.03;1650564;85;21282;-59
2022/11/11 00:27:28;;;;;;;43.00;30.13;;;;;;;6.51;100.00;101565.98;1650645;86;21217;-58
2022/11/11 00:30:14;;;;;;;44.57;32.33;;;;;;;6.50;100.00;101566.13;1650060;86;21561;-59
2022/11/11 00:33:01;;;;;;;40.90;30.20;;;;;;;6.47;100.00;101560.71;1650125;86;21733;-58
2022/11/11 00:35:52;;;;;;;43.87;30.97;;;;;;;6.45;100.00;101560.03;1650422;86;21273;-60
2022/11/11 00:38:46;;;;;;;48.80;32.93;;;;;;;6.45;100.00;101557.44;1650676;86;21281;-59
2022/11/11 00:41:32;;;;;;;44.63;32.00;;;;;;;6.45;100.00;101554.03;1650312;86;21564;-59
2022/11/11 00:44:18;;;;;;;43.77;32.60;;;;;;;6.45;100.00;101545.78;1650665;86;21348;-57
2022/11/11 00:53:20;;;;;;;58.23;36.30;;;;;;;6.36;100.00;101545.69;1650346;86;21283;-58
2022/11/11 00:56:06;;;;;;;54.50;36.43;;;;;;;6.30;100.00;101543.95;1648443;86;21408;-60
2022/11/11 00:58:52;;;;;;;54.43;37.93;;;;;;;6.28;100.00;101550.20;1622809;87;21801;-61
2022/11/11 01:01:38;;;;;;;50.63;36.07;;;;;;;6.29;100.00;101553.97;1650320;86;21242;-60
2022/11/11 01:04:24;;;;;;;51.80;35.97;;;;;;;6.29;100.00;101551.86;1650428;86;21250;-60
2022/11/11 01:07:09;;;;;;;50.80;34.57;;;;;;;6.30;100.00;101548.31;1650279;86;21335;-57
2022/11/11 01:09:55;;;;;;;47.03;34.57;;;;;;;6.31;100.00;101546.89;1650359;86;21000;-59
2022/11/11 01:12:42;;;;;;;44.00;32.93;;;;;;;6.31;100.00;101540.89;1650446;86;21172;-59
2022/11/11 01:15:27;;;;;;;43.10;29.00;;;;;;;6.33;100.00;101535.95;1650147;86;21791;-66
2022/11/11 01:18:15;;;;;;;43.03;31.20;;;;;;;6.36;100.00;101536.15;1650489;86;21283;-58
2022/11/11 01:21:15;;;;;;;43.47;31.03;;;;;;;6.39;100.00;101541.09;1649766;86;22186;-65
2022/11/11 01:24:02;;;;;;;40.20;29.95;;;;;;;6.40;100.00;101541.43;1650561;86;21147;-58
2022/11/11 01:26:47;;;;;;;39.13;28.37;;;;;;;6.41;100.00;101532.73;1650435;86;21022;-57
2022/11/11 01:29:33;;;;;;;34.50;25.87;;;;;;;6.43;100.00;101537.30;1650434;86;21204;-57
2022/11/11 01:32:20;;;;;;;34.47;25.67;;;;;;;6.40;100.00;101537.55;1650646;86;21191;-58
2022/11/11 01:35:07;;;;;;;31.07;23.40;;;;;;;6.40;100.00;101531.55;1650596;86;21217;-58
2022/11/11 01:37:56;;;;;;;32.07;24.53;;;;;;;6.42;100.00;101534.84;1650197;86;21962;-57
2022/11/11 01:40:45;;;;;;;30.47;22.33;;;;;;;6.45;100.00;101534.61;1650279;86;21021;-58
2022/11/11 01:43:31;;;;;;;28.33;20.60;;;;;;;6.45;100.00;101533.31;1650429;86;22042;-57
2022/11/11 01:46:22;;;;;;;27.93;22.03;;;;;;;6.45;100.00;101533.31;1650367;85;21356;-57
2022/11/11 01:49:21;;;;;;;31.20;23.80;;;;;;;6.46;100.00;101531.87;1661635;85;22057;-57
2022/11/11 01:52:31;;;;;;;61.83;41.97;;;;;;;6.45;100.00;101540.60;1685420;85;21062;-59
2022/11/11 01:55:19;;;;;;;60.70;42.80;;;;;;;6.46;100.00;101538.83;1686332;85;21259;-65
2022/11/11 01:58:10;;;;;;;66.53;43.93;;;;;;;6.37;100.00;101533.11;1686119;85;21231;-57
2022/11/11 02:00:58;;;;;;;60.90;42.08;;;;;;;6.33;100.00;101535.95;1685909;84;21319;-61
2022/11/11 02:05:40;;;;;;;57.83;41.53;;;;;;;6.31;100.00;101539.59;1686128;85;21285;-58
2022/11/11 02:06:31;;;;;;;57.00;39.80;;;;;;;6.29;100.00;101532.44;1685770;85;21795;-60
2022/11/11 02:09:17;;;;;;;62.40;44.40;;;;;;;6.28;100.00;101538.06;1686312;85;21258;-58
2022/11/11 02:15:11;;;;;;;72.10;50.20;;;;;;;6.23;100.00;101522.56;1686224;84;21233;-58
2022/11/11 02:17:58;;;;;;;67.53;49.17;;;;;;;6.21;100.00;101530.91;1686462;83;21351;-58
2022/11/11 02:20:45;;;;;;;72.47;50.40;;;;;;;6.18;100.00;101529.41;1644322;85;21178;-64
2022/11/11 02:23:45;;;;;;;69.40;46.90;;;;;;;6.15;100.00;101520.59;1640069;86;21131;-58
2022/11/11 02:26:31;;;;;;;69.17;50.13;;;;;;;6.14;100.00;101519.41;1685801;84;21779;-58
2022/11/11 02:29:18;;;;;;;70.57;48.10;;;;;;;6.13;100.00;101522.95;1686321;85;21261;-57
2022/11/11 02:32:04;;;;;;;66.27;47.27;;;;;;;6.12;100.00;101510.95;1685883;85;21225;-57
2022/11/11 02:34:51;;;;;;;62.97;45.30;;;;;;;6.13;100.00;101519.06;1686523;85;21735;-58
2022/11/11 02:37:36;;;;;;;65.33;43.30;;;;;;;6.15;100.00;101524.95;1686328;84;22480;-58
2022/11/11 02:43:47;;;;;;;60.30;44.73;;;;;;;6.19;100.00;101519.88;1686426;85;21241;-61
2022/11/11 02:46:32;;;;;;;55.03;41.43;;;;;;;6.19;100.00;101519.88;1686506;85;21288;-61
2022/11/11 02:49:18;;;;;;;48.30;35.30;;;;;;;6.23;100.00;101516.09;1686322;84;21237;-60
2022/11/11 02:52:04;;;;;;;56.20;38.43;;;;;;;6.24;100.00;101522.91;1686446;85;21101;-59
2022/11/11 02:54:50;;;;;;;49.67;36.07;;;;;;;6.26;100.00;101526.20;1686576;85;21650;-59
2022/11/11 02:57:37;;;;;;;53.17;37.60;;;;;;;6.26;100.00;101529.61;1686207;85;21214;-59
2022/11/11 03:00:22;;;;;;;56.10;37.57;;;;;;;6.27;100.00;101525.25;1686638;85;22282;-59
2022/11/11 03:03:09;;;;;;;45.87;34.07;;;;;;;6.29;100.00;101523.38;1686406;85;21425;-58
2022/11/11 03:05:55;;;;;;;43.37;32.07;;;;;;;6.31;100.00;101524.06;1656879;86;21141;-59
2022/11/11 03:08:42;;;;;;;48.77;35.33;;;;;;;6.30;100.00;101523.72;1662344;86;21053;-58
2022/11/11 03:11:27;;;;;;;47.97;32.53;;;;;;;6.30;100.00;101523.72;1686293;85;21142;-59
2022/11/11 03:14:13;;;;;;;37.27;27.20;;;;;;;6.29;100.00;101523.38;1685926;85;21509;-59
2022/11/11 03:23:15;;;;;;;35.20;26.90;;;;;;;6.29;100.00;101511.25;1686594;85;21312;-58
2022/11/11 03:26:01;;;;;;;41.20;29.93;;;;;;;6.27;100.00;101513.60;1686173;85;21294;-59
2022/11/11 03:28:47;;;;;;;37.70;28.43;;;;;;;6.26;100.00;101508.08;1686148;85;21787;-58
2022/11/11 03:31:32;;;;;;;41.30;31.03;;;;;;;6.24;100.00;101507.37;1686335;85;21000;-58
2022/11/11 03:34:18;;;;;;;44.90;31.53;;;;;;;6.25;100.00;101509.00;1686551;85;21133;-58
2022/11/11 03:40:14;;;;;;;36.20;26.13;;;;;;;6.28;100.00;101513.94;1685179;85;21452;-59
2022/11/11 03:42:59;;;;;;;35.40;26.97;;;;;;;6.29;100.00;101515.61;1686247;84;21279;-58
2022/11/11 03:45:45;;;;;;;37.03;28.07;;;;;;;6.32;100.00;101521.33;1685747;84;21127;-59
2022/11/11 03:48:33;;;;;;;32.73;25.40;;;;;;;6.33;100.00;101520.89;1686404;84;21148;-59
2022/11/11 03:51:18;;;;;;;33.57;24.60;;;;;;;6.31;100.00;101517.58;1685826;85;21892;-58
2022/11/11 03:54:04;;;;;;;32.20;24.23;;;;;;;6.30;100.00;101521.13;1657202;86;21295;-58
2022/11/11 03:56:50;;;;;;;34.30;27.00;;;;;;;6.29;100.00;101524.67;1661782;86;21304;-59
2022/11/11 03:59:37;;;;;;;32.60;25.13;;;;;;;6.27;100.00;101520.08;1686331;85;21351;-58
2022/11/11 04:11:39;;;;;;;32.80;25.20;;;;;;;6.28;100.00;101535.95;1686246;85;21277;-58
2022/11/11 04:17:30;;;;;;;28.47;20.03;;;;;;;6.32;100.00;101532.16;1686234;83;21216;-59
2022/11/11 04:23:21;;;;;;;28.67;20.03;;;;;;;6.34;100.00;101530.29;1656616;86;21224;-60
2022/11/11 04:26:07;;;;;;;26.13;18.80;;;;;;;6.31;100.00;101528.76;1662362;86;21304;-59
2022/11/11 04:35:12;;;;;;;38.00;26.23;;;;;;;6.28;100.00;101543.72;1657082;86;21269;-59
2022/11/11 04:41:02;;;;;;;37.00;27.93;;;;;;;6.27;100.00;101544.20;1662379;86;21613;-59
2022/11/11 04:41:02;;;;;;;44.80;30.30;;;;;;;6.28;100.00;101550.20;1686251;85;21222;-58
2022/11/11 04:46:51;;;;;;;61.00;46.20;;;;;;;6.26;100.00;101543.04;1656914;85;21339;-59
2022/11/11 04:49:38;;;;;;;45.93;34.23;;;;;;;6.21;100.00;101546.00;1662145;86;21146;-59
2022/11/11 04:52:27;;;;;;;43.90;31.27;;;;;;;6.18;100.00;101551.89;1686335;85;22007;-59
2022/11/11 04:58:19;;;;;;;51.13;37.27;;;;;;;6.20;100.00;101548.22;1657062;86;21173;-59
2022/11/11 05:01:05;;;;;;;50.07;37.60;;;;;;;6.23;100.00;101550.57;1662281;86;21669;-59
2022/11/11 05:03:51;;;;;;;45.43;34.27;;;;;;;6.21;100.00;101556.80;1686286;85;21691;-59
2022/11/11 05:09:42;;;;;;;48.87;35.97;;;;;;;6.23;100.00;101566.11;1657252;86;21279;-59
2022/11/11 05:12:28;;;;;;;48.37;36.37;;;;;;;6.25;100.00;101558.20;1662230;86;21276;-59
2022/11/11 05:21:28;;;;;;;61.70;44.03;;;;;;;6.28;100.00;101560.55;1686197;85;21023;-58
2022/11/11 05:27:20;;;;;;;66.57;45.57;;;;;;;6.30;100.00;101563.85;1686505;85;21175;-58
2022/11/11 05:30:08;;;;;;;65.40;47.40;;;;;;;6.32;100.00;101562.77;1686128;85;21114;-58
2022/11/11 05:32:56;;;;;;;59.43;43.93;;;;;;;6.36;100.00;101566.41;1686272;85;21204;-58
2022/11/11 05:35:42;;;;;;;60.07;44.27;;;;;;;6.41;100.00;101570.30;1685983;85;21237;-59
2022/11/11 05:38:29;;;;;;;104.93;62.53;;;;;;;6.45;100.00;101572.98;1686007;85;21189;-59
2022/11/11 05:41:14;;;;;;;103.80;60.70;;;;;;;6.47;100.00;101577.55;1686198;85;21210;-58
2022/11/11 05:44:00;;;;;;;87.03;55.80;;;;;;;6.50;100.00;101574.72;1686066;85;21161;-58
2022/11/11 05:46:46;;;;;;;81.17;51.27;;;;;;;6.55;100.00;101575.63;1686385;85;21340;-58
2022/11/11 05:49:31;;;;;;;59.90;44.57;;;;;;;6.60;100.00;101575.28;1686242;84;21233;-58
2022/11/11 05:52:17;;;;;;;58.57;44.87;;;;;;;6.63;100.00;101589.26;1693928;84;21159;-58
2022/11/11 05:55:03;;;;;;;55.20;42.70;;;;;;;6.68;100.00;101585.84;1694123;84;21201;-58
2022/11/11 05:57:48;;;;;;;60.97;41.73;;;;;;;6.77;100.00;101587.67;1693889;84;21211;-58
2022/11/11 06:00:34;;;;;;;56.10;39.57;;;;;;;6.72;100.00;101589.34;1693841;84;21222;-67
2022/11/11 06:03:20;;;;;;;62.00;40.87;;;;;;;6.75;100.00;101588.28;1693964;84;21682;-58
2022/11/11 06:06:06;;;;;;;46.73;35.20;;;;;;;6.80;100.00;101591.31;1694172;84;21750;-65
2022/11/11 06:08:52;;;;;;;51.30;35.90;;;;;;;6.88;100.00;101591.98;1693884;84;21063;-58
2022/11/11 06:11:38;;;;;;;38.63;29.17;;;;;;;6.92;100.00;101592.89;1694072;84;21236;-60
2022/11/11 06:14:26;;;;;;;35.47;28.27;;;;;;;6.94;100.00;101593.60;1693956;84;21131;-58
2022/11/11 06:17:11;;;;;;;40.47;33.47;;;;;;;6.98;100.00;101589.80;1694146;84;21305;-59
2022/11/11 06:19:58;;;;;;;44.37;35.37;;;;;;;7.00;100.00;101586.59;1693683;83;21248;-59
2022/11/11 06:22:57;;;;;;;45.93;35.73;;;;;;;7.05;100.00;101582.34;1693515;84;21253;-67
2022/11/11 06:28:51;;;;;;;47.20;33.07;;;;;;;7.14;100.00;101593.72;1694013;84;21125;-58
2022/11/11 06:31:37;;;;;;;49.67;36.80;;;;;;;7.22;100.00;101591.30;1693438;84;21275;-58
2022/11/11 06:34:22;;;;;;;49.23;37.40;;;;;;;7.27;100.00;101589.98;1693638;84;21369;-59
2022/11/11 06:37:09;;;;;;;47.50;37.27;;;;;;;7.30;100.00;101595.37;1693223;84;21455;-60
2022/11/11 06:39:54;;;;;;;47.30;36.17;;;;;;;7.35;100.00;101597.57;1694009;84;21321;-58
2022/11/11 06:42:41;;;;;;;43.00;33.07;;;;;;;7.41;100.00;101603.07;1692985;84;21212;-60
2022/11/11 06:45:28;;;;;;;42.60;32.13;;;;;;;7.51;100.00;101601.35;1693857;84;21294;-59
2022/11/11 06:48:14;;;;;;;41.53;33.60;;;;;;;7.51;100.00;101601.35;1693456;84;21917;-59
2022/11/11 06:51:03;;;;;;;38.53;29.23;;;;;;;7.61;100.00;101599.27;1693767;84;21950;-58
2022/11/11 06:53:48;;;;;;;36.63;26.93;;;;;;;7.61;100.00;101599.27;1693627;84;21555;-58
2022/11/11 06:56:34;;;;;;;31.37;25.63;;;;;;;7.67;100.00;101600.87;1694377;84;21352;-58
2022/11/11 06:59:20;;;;;;;29.60;23.40;;;;;;;7.69;100.00;101599.42;1693645;84;21474;-58
2022/11/11 07:02:05;;;;;;;35.00;27.13;;;;;;;7.74;100.00;101592.09;1694386;84;21489;-58
2022/11/11 07:04:52;;;;;;;34.07;29.60;;;;;;;7.74;100.00;101592.09;1693422;84;21591;-58
2022/11/11 07:07:37;;;;;;;45.43;34.50;;;;;;;7.79;100.00;101589.42;1693941;84;21403;-58
2022/11/11 07:10:23;;;;;;;45.00;35.50;;;;;;;7.79;100.00;101589.42;1693496;84;21679;-58
2022/11/11 07:13:09;;;;;;;57.90;43.63;;;;;;;7.81;100.00;101584.12;1694071;84;21738;-58
2022/11/11 07:15:55;;;;;;;59.27;46.13;;;;;;;7.78;100.00;101570.92;1693499;84;21656;-57
2022/11/11 07:18:42;;;;;;;57.60;41.07;;;;;;;7.88;100.00;101576.15;1693923;84;21417;-59
2022/11/11 07:21:28;;;;;;;57.47;43.27;;;;;;;7.88;100.00;101576.15;1694061;84;21936;-58
2022/11/11 07:24:13;;;;;;;52.00;40.93;;;;;;;8.01;100.00;101589.69;1694186;84;21464;-58
2022/11/11 07:27:00;;;;;;;57.20;42.40;;;;;;;8.01;100.00;101589.69;1694226;84;21763;-59
2022/11/11 07:29:47;;;;;;;51.47;41.40;;;;;;;8.11;100.00;101587.13;1693962;84;21292;-58
2022/11/11 07:32:34;;;;;;;59.70;45.10;;;;;;;8.20;100.00;101591.98;1694070;84;21732;-58
2022/11/11 07:35:19;;;;;;;56.03;43.20;;;;;;;8.20;100.00;101592.80;1694203;84;21940;-58
2022/11/11 07:38:05;;;;;;;51.97;41.00;;;;;;;8.17;100.00;101591.77;1694142;84;21714;-58
2022/11/11 07:40:50;;;;;;;59.20;42.80;;;;;;;8.20;100.00;101595.88;1694184;84;22152;-58
2022/11/11 07:43:36;;;;;;;59.27;45.27;;;;;;;8.19;100.00;101592.95;1694211;84;22245;-57
2022/11/11 07:46:22;;;;;;;53.33;40.97;;;;;;;8.21;100.00;101594.92;1693825;84;22192;-59
2022/11/11 07:49:08;;;;;;;59.67;42.53;;;;;;;8.25;100.00;101594.98;1693952;84;22551;-59
2022/11/11 07:51:54;;;;;;;69.17;48.33;;;;;;;8.28;100.00;101600.73;1693793;84;21740;-58
2022/11/11 07:54:39;;;;;;;54.40;44.27;;;;;;;8.34;100.00;101598.09;1693882;84;22005;-59
2022/11/11 07:57:25;;;;;;;70.83;52.57;;;;;;;8.43;100.00;101609.47;1693894;84;21651;-59
2022/11/11 08:00:13;;;;;;;54.40;42.00;;;;;;;8.46;100.00;101604.02;1694051;84;21806;-59
2022/11/11 08:02:58;;;;;;;60.07;47.33;;;;;;;8.49;100.00;101608.46;1694062;84;22606;-59
2022/11/11 08:05:44;;;;;;;57.53;44.57;;;;;;;8.52;100.00;101602.15;1694022;84;21588;-59
2022/11/11 08:08:30;;;;;;;50.83;42.33;;;;;;;8.63;100.00;101606.40;1694258;84;21707;-58
2022/11/11 08:13:39;;;;;;;43.63;35.83;;;;;;;8.73;100.00;101608.05;1694056;84;21781;-59
2022/11/11 08:14:04;;;;;;;34.57;28.67;;;;;;;8.85;100.00;101611.31;1693744;84;21656;-60
2022/11/11 08:16:52;;;;;;;29.87;25.10;;;;;;;8.95;100.00;101605.63;1693697;84;21757;-62
2022/11/11 08:19:38;;;;;;;35.50;27.97;;;;;;;9.05;100.00;101602.18;1693803;84;21655;-60
2022/11/11 08:22:23;;;;;;;30.63;21.83;;;;;;;9.14;100.00;101603.95;1694257;84;21658;-59
2022/11/11 08:25:13;;;;;;;30.30;23.53;;;;;;;9.34;100.00;101596.43;1693838;84;22231;-59
2022/11/11 08:28:02;;;;;;;20.57;17.07;;;;;;;9.34;100.00;101596.43;1693844;84;21013;-59
2022/11/11 08:30:49;;;;;;;20.27;16.83;;;;;;;9.41;100.00;101597.50;1693447;83;22070;-59
2022/11/11 08:33:35;;;;;;;18.93;14.53;;;;;;;9.47;100.00;101594.34;1693987;84;21686;-59
2022/11/11 08:36:22;;;;;;;17.57;13.73;;;;;;;9.55;100.00;101600.63;1693315;84;21030;-63
2022/11/11 08:39:07;;;;;;;16.93;13.23;;;;;;;9.59;100.00;101601.48;1694021;84;21667;-59
2022/11/11 08:41:53;;;;;;;15.90;12.17;;;;;;;9.59;100.00;101595.47;1693374;84;21685;-60
2022/11/11 08:44:40;;;;;;;18.60;13.37;;;;;;;9.63;100.00;101599.42;1694047;84;21003;-60
2022/11/11 08:47:26;;;;;;;17.70;14.40;;;;;;;9.64;100.00;101594.54;1693126;84;21402;-59
2022/11/11 08:50:12;;;;;;;16.67;13.57;;;;;;;9.66;100.00;101594.75;1694215;84;21046;-59
2022/11/11 08:52:58;;;;;;;15.90;13.90;;;;;;;9.71;100.00;101591.70;1693883;84;21325;-59
2022/11/11 08:55:43;;;;;;;13.60;11.13;;;;;;;9.71;100.00;101587.80;1694001;84;21110;-58
2022/11/11 08:58:29;;;;;;;12.77;10.13;;;;;;;9.68;100.00;101586.78;1693071;84;20978;-59
2022/11/11 09:01:14;;;;;;;15.93;11.77;;;;;;;9.67;100.00;101582.06;1694120;84;20998;-58
2022/11/11 09:04:00;;;;;;;13.90;10.87;;;;;;;9.75;100.00;101594.36;1693560;84;21738;-58
2022/11/11 09:06:47;;;;;;;16.60;10.77;;;;;;;9.74;100.00;101591.42;1693873;84;21186;-58
2022/11/11 09:09:32;;;;;;;17.43;13.40;;;;;;;9.75;100.00;101589.15;1693875;84;20946;-58
2022/11/11 09:12:18;;;;;;;17.77;12.53;;;;;;;9.75;100.00;101595.17;1694102;84;21533;-58
2022/11/11 09:15:05;;;;;;;17.70;13.80;;;;;;;9.82;100.00;101590.70;1694238;84;22093;-58
2022/11/11 09:17:51;;;;;;;18.30;13.43;;;;;;;9.91;100.00;101591.11;1694214;84;21038;-57
2022/11/11 09:20:37;;;;;;;20.30;15.53;;;;;;;9.91;100.00;101591.11;1694030;84;21453;-57
2022/11/11 09:23:23;;;;;;;33.27;24.07;;;;;;;9.94;100.00;101593.44;1693883;84;21458;-60
2022/11/11 09:26:08;;;;;;;19.40;15.40;;;;;;;9.94;100.00;101598.16;1694175;84;21053;-58
2022/11/11 09:28:54;;;;;;;14.50;10.93;;;;;;;9.93;100.00;101597.83;1693944;84;21414;-60
2022/11/11 09:31:40;;;;;;;17.57;14.13;;;;;;;9.89;100.00;101593.88;1694158;84;21454;-59
2022/11/11 09:34:26;;;;;;;14.40;11.83;;;;;;;9.87;100.00;101592.38;1693781;84;21410;-60
2022/11/11 09:37:13;;;;;;;16.27;12.17;;;;;;;9.85;100.00;101591.23;1693865;84;21972;-60
2022/11/11 09:39:58;;;;;;;16.43;12.53;;;;;;;9.81;100.00;101595.09;1693892;84;21014;-60
2022/11/11 09:42:52;;;;;;;16.60;12.00;;;;;;;9.81;100.00;101595.09;1693861;84;21074;-61
2022/11/11 09:46:08;;;;;;;12.50;9.77;;;;;;;9.77;100.00;101600.22;1693962;84;21018;-62
2022/11/11 09:49:22;;;;;;;16.50;13.50;;;;;;;9.73;100.00;101598.88;1693200;83;21193;-66
2022/11/11 09:52:24;;;;;;;16.67;13.20;;;;;;;9.66;100.00;101606.46;1693578;84;21117;-59
2022/11/11 09:55:17;;;;;;;20.80;16.77;;;;;;;9.57;100.00;101605.19;1693965;84;20914;-58
2022/11/11 09:58:24;;;;;;;20.90;14.50;;;;;;;9.45;100.00;101600.16;1693610;84;21576;-60
2022/11/11 10:01:17;;;;;;;17.10;12.40;;;;;;;9.36;100.00;101597.13;1694009;84;21744;-61
2022/11/11 10:04:31;;;;;;;15.27;11.83;;;;;;;9.33;100.00;101598.70;1694116;84;21224;-59
2022/11/11 10:07:36;;;;;;;13.40;11.40;;;;;;;9.34;100.00;101603.42;1694073;84;20947;-59
2022/11/11 10:10:36;;;;;;;16.77;12.00;;;;;;;9.32;100.00;101599.67;1693529;84;21719;-58
2022/11/11 10:13:33;;;;;;;18.40;13.53;;;;;;;9.31;100.00;101604.52;1694014;83;21695;-58
2022/11/11 10:16:46;;;;;;;13.37;10.37;;;;;;;9.33;100.00;101604.39;1693820;82;21523;-59
2022/11/11 10:20:00;;;;;;;13.60;10.20;;;;;;;9.33;100.00;101604.39;1694060;84;21162;-58
2022/11/11 10:22:47;;;;;;;12.50;10.10;;;;;;;9.32;100.00;101599.67;1686673;84;21685;-58
2022/11/11 10:25:32;;;;;;;12.73;10.43;;;;;;;9.31;100.00;101596.70;1693835;84;21500;-66
2022/11/11 10:28:19;;;;;;;14.43;11.67;;;;;;;9.33;100.00;101597.40;1693844;84;20991;-60
2022/11/11 10:31:10;;;;;;;16.23;11.60;;;;;;;9.37;100.00;101591.44;1693483;84;21561;-65
2022/11/11 10:34:09;;;;;;;19.20;16.48;;;;;;;9.39;100.00;101594.70;1694326;84;21275;-58
2022/11/11 10:36:55;;;;;;;18.33;14.47;;;;;;;9.38;100.00;101596.97;1694179;84;21057;-59
2022/11/11 10:39:59;;;;;;;14.27;11.57;;;;;;;9.41;100.00;101590.19;1694267;84;21692;-59
2022/11/11 10:42:45;;;;;;;16.57;11.90;;;;;;;9.41;100.00;101583.19;1666104;84;21549;-58
2022/11/11 10:45:53;;;;;;;14.97;12.43;;;;;;;9.46;100.00;101585.36;1693729;84;21078;-59
2022/11/11 10:48:59;;;;;;;16.33;12.27;;;;;;;9.50;100.00;101578.41;1693907;84;21652;-59
2022/11/11 10:52:10;;;;;;;16.27;12.77;;;;;;;9.50;100.00;101577.60;1691527;84;20971;-59
2022/11/11 10:55:03;;;;;;;18.02;15.08;;;;;;;9.47;100.00;101573.98;1686418;85;20985;-60
2022/11/11 10:58:13;;;;;;;17.67;14.50;;;;;;;9.47;100.00;101568.77;1686398;84;21014;-59
2022/11/11 11:01:00;;;;;;;17.03;14.33;;;;;;;9.47;100.00;101572.67;1686099;85;21649;-59
2022/11/11 11:03:49;;;;;;;104.10;55.27;;;;;;;9.49;100.00;101572.06;1686513;85;21259;-58
2022/11/11 11:06:37;;;;;;;132.37;66.33;;;;;;;9.49;100.00;101563.77;1685713;85;21057;-59
2022/11/11 11:09:36;;;;;;;48.27;27.43;;;;;;;9.50;100.00;101564.09;1686551;84;21647;-58
2022/11/11 11:12:44;;;;;;;32.73;20.53;;;;;;;9.51;100.00;101558.44;1662857;86;21461;-57
2022/11/11 11:15:31;;;;;;;28.37;17.53;;;;;;;9.54;100.00;101562.52;1686521;85;21320;-59
2022/11/11 11:18:17;;;;;;;26.47;19.33;;;;;;;9.54;100.00;101563.81;1656958;86;21737;-59
2022/11/11 11:21:05;;;;;;;21.50;17.03;;;;;;;9.50;100.00;101562.80;1662251;86;22257;-58
2022/11/11 11:23:51;;;;;;;28.20;20.17;;;;;;;9.50;100.00;101569.31;1686230;85;20947;-58
2022/11/11 11:26:46;;;;;;;35.70;23.43;;;;;;;9.46;100.00;101573.64;1686661;85;21560;-58
2022/11/11 11:29:38;;;;;;;23.53;17.67;;;;;;;9.46;100.00;101573.64;1686574;85;21493;-58
2022/11/11 11:32:30;;;;;;;27.00;19.43;;;;;;;9.41;100.00;101563.67;1686332;84;21639;-58
2022/11/11 11:35:45;;;;;;;33.90;21.80;;;;;;;9.32;100.00;101562.39;1685554;85;20951;-60
2022/11/11 11:38:51;;;;;;;44.00;29.73;;;;;;;9.23;100.00;101558.87;1685852;85;22193;-61
2022/11/11 11:41:43;;;;;;;27.17;19.77;;;;;;;9.08;100.00;101565.48;1686511;85;21619;-68
2022/11/11 11:44:33;;;;;;;22.42;15.98;;;;;;;8.98;100.00;101554.64;1686085;85;21634;-59
2022/11/11 11:47:33;;;;;;;19.73;15.33;;;;;;;8.97;100.00;101566.47;1685550;85;21280;-60
2022/11/11 11:50:45;;;;;;;16.37;12.00;;;;;;;8.95;100.00;101566.63;1654462;86;23108;-58
2022/11/11 11:53:48;;;;;;;19.00;15.70;;;;;;;8.96;100.00;101566.95;1691538;84;21605;-59
2022/11/11 11:56:42;;;;;;;27.13;18.37;;;;;;;8.95;100.00;101567.92;1694259;84;21708;-58
2022/11/11 11:59:51;;;;;;;20.73;13.60;;;;;;;9.00;100.00;101570.91;1644853;86;21569;-58
2022/11/11 12:02:54;;;;;;;15.43;10.43;;;;;;;9.07;100.00;101570.36;1681997;85;21660;-59
2022/11/11 12:05:48;;;;;;;20.00;14.77;;;;;;;9.10;100.00;101571.39;1694255;84;21728;-58
2022/11/11 12:08:46;;;;;;;23.60;17.80;;;;;;;9.10;100.00;101569.60;1682288;85;22566;-58
2022/11/11 12:12:00;;;;;;;21.67;15.50;;;;;;;9.08;100.00;101569.39;1694100;84;21654;-60
2022/11/11 12:15:03;;;;;;;16.90;12.23;;;;;;;9.12;100.00;101575.95;1694014;84;21674;-57
2022/11/11 12:18:20;;;;;;;13.80;11.03;;;;;;;9.17;100.00;101573.77;1694198;84;22470;-59
2022/11/11 12:21:20;;;;;;;22.70;15.73;;;;;;;9.16;100.00;101569.50;1694123;84;22186;-58
2022/11/11 12:24:29;;;;;;;20.97;16.00;;;;;;;9.15;100.00;101570.47;1682124;85;21586;-59
2022/11/11 12:27:27;;;;;;;23.50;18.77;;;;;;;9.16;100.00;101572.11;1693402;84;21654;-59
2022/11/11 12:30:19;;;;;;;44.80;32.07;;;;;;;9.14;100.00;101585.75;1651829;86;21750;-57
2022/11/11 12:33:37;;;;;;;34.83;23.83;;;;;;;9.11;100.00;101572.53;1694302;84;22538;-59
2022/11/11 12:36:43;;;;;;;22.97;16.47;;;;;;;9.10;100.00;101576.59;1675856;84;22418;-60
2022/11/11 12:39:33;;;;;;;34.03;25.90;;;;;;;9.07;100.00;101572.97;1693464;84;21701;-60
2022/11/11 12:42:45;;;;;;;33.13;24.07;;;;;;;9.06;100.00;101579.14;1664231;86;21611;-62
2022/11/11 12:45:41;;;;;;;29.63;21.27;;;;;;;9.05;100.00;101580.07;1682206;85;21686;-59
2022/11/11 12:49:09;;;;;;;26.40;18.87;;;;;;;9.03;100.00;101584.12;1693346;84;21300;-59
2022/11/11 12:52:18;;;;;;;45.20;32.47;;;;;;;9.00;100.00;101584.41;1694249;84;21662;-59
2022/11/11 12:55:24;;;;;;;45.77;30.73;;;;;;;8.91;100.00;101580.87;1661616;85;21670;-66
2022/11/11 12:58:43;;;;;;;35.50;24.27;;;;;;;8.82;100.00;101575.18;1677340;85;22208;-59
2022/11/11 13:01:46;;;;;;;33.40;20.93;;;;;;;8.82;100.00;101575.18;1691288;84;22067;-58
2022/11/11 13:05:05;;;;;;;36.07;24.77;;;;;;;8.76;100.00;101570.56;1691293;84;22265;-58
2022/11/11 13:08:22;;;;;;;33.80;24.43;;;;;;;8.72;100.00;101573.09;1677203;85;22170;-58
2022/11/11 13:11:45;;;;;;;22.57;16.77;;;;;;;8.68;100.00;101580.83;1691194;84;21758;-58
2022/11/11 13:14:47;;;;;;;20.93;16.67;;;;;;;8.61;100.00;101580.55;1662009;86;21796;-58
2022/11/11 13:17:34;;;;;;;26.13;17.43;;;;;;;8.56;100.00;101585.80;1673854;85;23390;-58
2022/11/11 13:20:54;;;;;;;21.03;15.37;;;;;;;8.50;100.00;101588.48;1691263;84;21781;-57
2022/11/11 13:23:40;;;;;;;21.33;16.00;;;;;;;8.41;100.00;101571.09;1691261;84;21752;-58
2022/11/11 13:26:39;;;;;;;23.60;18.03;;;;;;;8.41;100.00;101571.09;1661888;86;21795;-59
2022/11/11 13:29:51;;;;;;;40.17;27.07;;;;;;;8.40;100.00;101572.06;1676494;85;22016;-60
2022/11/11 13:32:48;;;;;;;32.65;21.85;;;;;;;8.30;100.00;101577.24;1690795;84;21567;-64
2022/11/11 13:35:39;;;;;;;26.80;18.13;;;;;;;8.10;100.00;101595.03;1676965;85;21233;-57
2022/11/11 13:38:46;;;;;;;27.13;18.80;;;;;;;8.10;100.00;101595.03;1691576;84;21704;-57
2022/11/11 13:41:37;;;;;;;36.77;31.27;;;;;;;8.07;100.00;101595.30;1676740;85;20962;-57
2022/11/11 13:44:31;;;;;;;31.65;20.97;;;;;;;7.99;100.00;101599.41;1691221;84;21824;-58
2022/11/11 13:47:36;;;;;;;28.63;20.97;;;;;;;7.95;100.00;101597.19;1676974;85;21347;-58
2022/11/11 13:50:29;;;;;;;25.23;17.83;;;;;;;7.87;100.00;101584.05;1691053;84;22249;-66
2022/11/11 13:53:28;;;;;;;23.63;17.30;;;;;;;7.78;100.00;101586.97;1676545;85;21260;-58
2022/11/11 13:56:35;;;;;;;24.83;18.27;;;;;;;7.72;100.00;101585.70;1685929;85;21182;-59
2022/11/11 13:59:25;;;;;;;25.97;17.23;;;;;;;7.66;100.00;101585.44;1685869;85;21312;-59
2022/11/11 14:02:21;;;;;;;25.97;19.30;;;;;;;7.59;100.00;101580.42;1686787;85;21353;-59
2022/11/11 14:05:14;;;;;;;27.63;20.27;;;;;;;7.51;100.00;101587.08;1686313;85;21163;-59
2022/11/11 14:08:01;;;;;;;30.73;22.07;;;;;;;7.45;100.00;101588.07;1686038;85;21334;-67
2022/11/11 14:10:51;;;;;;;43.13;30.97;;;;;;;7.43;100.00;101592.58;1686272;85;21150;-59
2022/11/11 14:13:37;;;;;;;45.60;32.40;;;;;;;7.41;100.00;101595.77;1685923;85;21179;-65